createdAt,value
2023-04-20T00:00:55.330Z,0.00
2023-04-20T00:01:55.363Z,0.00
2023-04-20T00:02:55.444Z,0.00
2023-04-20T00:03:55.428Z,0.00
2023-04-20T00:04:55.432Z,0.00
2023-04-20T00:05:55.315Z,0.00
2023-04-20T00:06:55.324Z,0.00
2023-04-20T00:07:55.312Z,0.00
2023-04-20T00:08:55.324Z,0.00
2023-04-20T00:09:55.314Z,0.00
2023-04-20T00:10:55.330Z,0.00
2023-04-20T00:11:55.304Z,0.00
2023-04-20T00:12:55.315Z,0.00
2023-04-20T00:13:55.316Z,0.00
2023-04-20T00:14:55.301Z,0.00
2023-04-20T00:15:55.293Z,0.00
2023-04-20T00:16:55.336Z,0.00
2023-04-20T00:17:55.321Z,0.00
2023-04-20T00:18:55.302Z,0.00
2023-04-20T00:19:55.285Z,0.00
2023-04-20T00:20:55.320Z,0.00
2023-04-20T00:21:55.296Z,0.00
2023-04-20T00:22:55.283Z,0.00
2023-04-20T00:23:55.290Z,0.00
2023-04-20T00:24:55.289Z,0.00
2023-04-20T00:25:55.272Z,0.00
2023-04-20T00:26:55.277Z,0.00
2023-04-20T00:27:55.267Z,0.00
2023-04-20T00:28:55.267Z,0.00
2023-04-20T00:29:55.269Z,0.00
2023-04-20T00:30:55.294Z,0.00
2023-04-20T00:31:55.257Z,0.00
2023-04-20T00:32:55.326Z,0.00
2023-04-20T00:33:55.249Z,0.00
2023-04-20T00:34:55.270Z,0.00
2023-04-20T00:35:55.247Z,0.00
2023-04-20T00:36:55.276Z,0.00
2023-04-20T00:37:55.247Z,0.00
2023-04-20T00:38:55.248Z,0.00
2023-04-20T00:39:55.242Z,0.00
2023-04-20T00:40:55.232Z,0.00
2023-04-20T00:41:55.228Z,0.00
2023-04-20T00:42:55.231Z,0.00
2023-04-20T00:43:55.225Z,0.00
2023-04-20T00:44:55.240Z,0.00
2023-04-20T00:45:55.247Z,0.00
2023-04-20T00:46:55.220Z,0.00
2023-04-20T00:47:55.244Z,0.00
2023-04-20T00:48:55.229Z,0.00
2023-04-20T00:49:55.212Z,0.00
2023-04-20T00:50:55.216Z,0.00
2023-04-20T00:51:55.207Z,0.00
2023-04-20T00:52:55.227Z,0.00
2023-04-20T00:53:55.212Z,0.00
2023-04-20T00:54:55.208Z,0.00
2023-04-20T00:55:55.205Z,0.00
2023-04-20T00:56:55.206Z,0.00
2023-04-20T00:57:55.200Z,0.00
2023-04-20T00:58:55.197Z,0.00
2023-04-20T00:59:55.190Z,0.00
2023-04-20T01:00:55.191Z,0.00
2023-04-20T01:01:55.255Z,0.00
2023-04-20T01:02:55.373Z,0.00
2023-04-20T01:03:55.250Z,0.00
2023-04-20T01:04:55.187Z,0.00
2023-04-20T01:05:55.179Z,0.00
2023-04-20T01:06:55.191Z,0.00
2023-04-20T01:07:55.172Z,0.00
2023-04-20T01:08:55.208Z,0.00
2023-04-20T01:09:55.176Z,0.00
2023-04-20T01:10:55.169Z,0.00
2023-04-20T01:11:55.164Z,0.00
2023-04-20T01:12:55.168Z,0.00
2023-04-20T01:13:55.157Z,0.00
2023-04-20T01:14:55.157Z,0.00
2023-04-20T01:15:55.175Z,0.00
2023-04-20T01:16:55.154Z,0.00
2023-04-20T01:17:55.222Z,0.00
2023-04-20T01:18:55.149Z,0.00
2023-04-20T01:19:55.146Z,0.00
2023-04-20T01:20:55.144Z,0.00
2023-04-20T01:21:55.142Z,0.00
2023-04-20T01:22:55.146Z,0.00
2023-04-20T01:23:55.138Z,0.00
2023-04-20T01:24:55.157Z,0.00
2023-04-20T01:25:55.130Z,0.00
2023-04-20T01:26:55.129Z,0.00
2023-04-20T01:27:55.124Z,0.00
2023-04-20T01:28:55.130Z,0.00
2023-04-20T01:29:55.124Z,0.00
2023-04-20T01:30:55.129Z,0.00
2023-04-20T01:31:55.195Z,0.00
2023-04-20T01:32:55.212Z,0.00
2023-04-20T01:33:55.113Z,0.00
2023-04-20T01:34:55.113Z,0.00
2023-04-20T01:35:55.105Z,0.00
2023-04-20T01:36:55.111Z,0.00
2023-04-20T01:37:55.102Z,0.00
2023-04-20T01:38:55.104Z,0.00
2023-04-20T01:39:55.172Z,0.00
2023-04-20T01:40:55.145Z,0.00
2023-04-20T01:41:55.096Z,0.00
2023-04-20T01:42:55.099Z,0.00
2023-04-20T01:43:55.097Z,0.00
2023-04-20T01:44:55.090Z,0.00
2023-04-20T01:45:55.091Z,0.00
2023-04-20T01:46:55.109Z,0.00
2023-04-20T01:47:55.138Z,0.00
2023-04-20T01:48:55.088Z,0.00
2023-04-20T01:49:55.076Z,0.00
2023-04-20T01:50:55.082Z,0.00
2023-04-20T01:51:55.074Z,0.00
2023-04-20T01:52:55.089Z,0.00
2023-04-20T01:53:55.076Z,0.00
2023-04-20T01:54:55.072Z,0.00
2023-04-20T01:55:55.071Z,0.00
2023-04-20T01:56:55.085Z,0.00
2023-04-20T01:57:55.063Z,0.00
2023-04-20T01:58:55.064Z,0.00
2023-04-20T01:59:55.061Z,0.00
2023-04-20T02:00:55.094Z,0.00
2023-04-20T02:01:55.081Z,0.00
2023-04-20T02:02:55.190Z,0.00
2023-04-20T02:03:55.078Z,0.00
2023-04-20T02:04:55.077Z,0.00
2023-04-20T02:05:55.036Z,0.00
2023-04-20T02:06:55.043Z,0.00
2023-04-20T02:07:55.036Z,0.00
2023-04-20T02:08:55.036Z,0.00
2023-04-20T02:09:55.042Z,0.00
2023-04-20T02:10:55.033Z,0.00
2023-04-20T02:11:55.034Z,0.00
2023-04-20T02:12:55.054Z,0.00
2023-04-20T02:13:55.036Z,0.00
2023-04-20T02:14:55.018Z,0.00
2023-04-20T02:15:55.028Z,0.00
2023-04-20T02:16:55.039Z,0.00
2023-04-20T02:17:55.052Z,0.00
2023-04-20T02:18:55.017Z,0.00
2023-04-20T02:19:55.000Z,8.00
2023-04-20T02:20:55.026Z,8.00
2023-04-20T02:21:55.012Z,8.00
2023-04-20T02:22:55.005Z,8.00
2023-04-20T02:23:54.999Z,8.00
2023-04-20T02:24:54.992Z,8.00
2023-04-20T02:25:54.993Z,8.00
2023-04-20T02:26:54.991Z,8.00
2023-04-20T02:27:55.042Z,8.00
2023-04-20T02:28:54.996Z,8.00
2023-04-20T02:29:54.975Z,8.00
2023-04-20T02:30:55.035Z,8.00
2023-04-20T02:31:54.976Z,8.00
2023-04-20T02:32:55.044Z,8.00
2023-04-20T02:33:54.970Z,8.00
2023-04-20T02:34:54.969Z,8.00
2023-04-20T02:35:54.962Z,8.00
2023-04-20T02:36:54.968Z,8.00
2023-04-20T02:37:54.963Z,0.00
2023-04-20T02:38:54.971Z,0.00
2023-04-20T02:39:54.962Z,0.00
2023-04-20T02:40:54.965Z,0.00
2023-04-20T02:41:54.948Z,0.00
2023-04-20T02:42:54.954Z,0.00
2023-04-20T02:43:54.962Z,0.00
2023-04-20T02:44:54.966Z,0.00
2023-04-20T02:45:54.948Z,0.00
2023-04-20T02:46:54.982Z,0.00
2023-04-20T02:47:54.969Z,0.00
2023-04-20T02:48:54.945Z,0.00
2023-04-20T02:49:54.934Z,0.00
2023-04-20T02:50:54.928Z,0.00
2023-04-20T02:51:54.925Z,0.00
2023-04-20T02:52:54.928Z,0.00
2023-04-20T02:53:54.929Z,0.00
2023-04-20T02:54:54.923Z,0.00
2023-04-20T02:55:54.924Z,0.00
2023-04-20T02:56:57.221Z,0.00
2023-04-20T02:57:54.916Z,0.00
2023-04-20T02:58:54.917Z,0.00
2023-04-20T02:59:54.910Z,0.00
2023-04-20T03:00:54.943Z,0.00
2023-04-20T03:01:54.925Z,0.00
2023-04-20T03:02:55.053Z,0.00
2023-04-20T03:03:55.232Z,0.00
2023-04-20T03:04:54.906Z,0.00
2023-04-20T03:05:56.128Z,0.00
2023-04-20T03:06:54.902Z,0.00
2023-04-20T03:07:54.894Z,0.00
2023-04-20T03:08:54.888Z,0.00
2023-04-20T03:09:54.900Z,0.00
2023-04-20T03:10:54.885Z,0.00
2023-04-20T03:11:54.893Z,0.00
2023-04-20T03:12:54.874Z,0.00
2023-04-20T03:13:54.886Z,0.00
2023-04-20T03:14:54.870Z,0.00
2023-04-20T03:15:54.909Z,0.00
2023-04-20T03:16:55.049Z,0.00
2023-04-20T03:17:54.964Z,0.00
2023-04-20T03:18:54.875Z,0.00
2023-04-20T03:19:54.871Z,0.00
2023-04-20T03:20:54.868Z,0.00
2023-04-20T03:21:54.861Z,0.00
2023-04-20T03:22:54.845Z,0.00
2023-04-20T03:23:54.854Z,0.00
2023-04-20T03:24:54.848Z,0.00
2023-04-20T03:25:54.846Z,0.00
2023-04-20T03:26:54.844Z,0.00
2023-04-20T03:27:54.841Z,0.00
2023-04-20T03:28:54.839Z,0.00
2023-04-20T03:29:54.847Z,0.00
2023-04-20T03:30:54.835Z,0.00
2023-04-20T03:31:54.861Z,0.00
2023-04-20T03:32:54.924Z,0.00
2023-04-20T03:33:54.832Z,4.00
2023-04-20T03:34:54.820Z,0.00
2023-04-20T03:35:54.820Z,0.00
2023-04-20T03:36:54.844Z,0.00
2023-04-20T03:37:54.814Z,0.00
2023-04-20T03:38:54.807Z,0.00
2023-04-20T03:39:54.816Z,4.00
2023-04-20T03:40:54.819Z,0.00
2023-04-20T03:41:54.806Z,4.00
2023-04-20T03:42:54.807Z,4.00
2023-04-20T03:43:54.804Z,8.00
2023-04-20T03:44:54.802Z,4.00
2023-04-20T03:45:54.853Z,4.00
2023-04-20T03:46:54.790Z,8.00
2023-04-20T03:47:54.813Z,8.00
2023-04-20T03:48:54.895Z,8.00
2023-04-20T03:49:54.785Z,8.00
2023-04-20T03:50:54.787Z,12.00
2023-04-20T03:51:54.782Z,16.00
2023-04-20T03:52:54.779Z,20.00
2023-04-20T03:53:54.777Z,24.00
2023-04-20T03:54:54.787Z,28.00
2023-04-20T03:55:54.772Z,32.00
2023-04-20T03:56:54.765Z,36.00
2023-04-20T03:57:54.770Z,36.00
2023-04-20T03:58:54.773Z,44.00
2023-04-20T03:59:54.759Z,48.00
2023-04-20T04:00:54.754Z,52.00
2023-04-20T04:01:54.782Z,44.00
2023-04-20T04:02:54.843Z,56.00
2023-04-20T04:03:54.901Z,64.00
2023-04-20T04:04:54.831Z,92.00
2023-04-20T04:05:54.749Z,88.00
2023-04-20T04:06:54.742Z,76.00
2023-04-20T04:07:54.744Z,72.00
2023-04-20T04:08:54.739Z,76.00
2023-04-20T04:09:54.743Z,108.00
2023-04-20T04:10:54.727Z,96.00
2023-04-20T04:11:54.731Z,96.00
2023-04-20T04:12:54.723Z,88.00
2023-04-20T04:13:54.724Z,100.00
2023-04-20T04:14:54.727Z,100.00
2023-04-20T04:15:54.736Z,96.00
2023-04-20T04:16:54.789Z,120.00
2023-04-20T04:17:54.777Z,164.00
2023-04-20T04:18:54.711Z,148.00
2023-04-20T04:19:54.710Z,152.00
2023-04-20T04:20:54.732Z,172.00
2023-04-20T04:21:54.703Z,152.00
2023-04-20T04:22:54.703Z,136.00
2023-04-20T04:23:54.723Z,156.00
2023-04-20T04:24:54.702Z,168.00
2023-04-20T04:25:54.698Z,136.00
2023-04-20T04:26:54.690Z,116.00
2023-04-20T04:27:54.699Z,164.00
2023-04-20T04:28:54.700Z,144.00
2023-04-20T04:29:54.692Z,172.00
2023-04-20T04:30:54.680Z,144.00
2023-04-20T04:31:54.834Z,104.00
2023-04-20T04:32:54.714Z,92.00
2023-04-20T04:33:54.673Z,112.00
2023-04-20T04:34:54.671Z,128.00
2023-04-20T04:35:54.701Z,156.00
2023-04-20T04:36:54.685Z,136.00
2023-04-20T04:37:54.667Z,152.00
2023-04-20T04:38:54.667Z,192.00
2023-04-20T04:39:54.664Z,244.00
2023-04-20T04:40:54.657Z,316.00
2023-04-20T04:41:54.658Z,300.00
2023-04-20T04:42:54.654Z,280.00
2023-04-20T04:43:54.662Z,300.00
2023-04-20T04:44:54.647Z,276.00
2023-04-20T04:45:54.710Z,276.00
2023-04-20T04:46:54.639Z,240.00
2023-04-20T04:47:54.665Z,228.00
2023-04-20T04:48:54.641Z,256.00
2023-04-20T04:49:54.647Z,308.00
2023-04-20T04:50:54.630Z,360.00
2023-04-20T04:51:54.641Z,420.00
2023-04-20T04:52:54.647Z,360.00
2023-04-20T04:53:54.632Z,376.00
2023-04-20T04:54:54.628Z,444.00
2023-04-20T04:55:54.634Z,472.00
2023-04-20T04:56:54.624Z,628.00
2023-04-20T04:57:54.622Z,712.00
2023-04-20T04:58:54.617Z,648.00
2023-04-20T04:59:54.614Z,540.00
2023-04-20T05:00:54.610Z,464.00
2023-04-20T05:01:54.632Z,492.00
2023-04-20T05:02:54.651Z,600.00
2023-04-20T05:03:54.813Z,496.00
2023-04-20T05:04:54.652Z,476.00
2023-04-20T05:05:54.601Z,544.00
2023-04-20T05:06:54.594Z,444.00
2023-04-20T05:07:54.595Z,388.00
2023-04-20T05:08:54.616Z,428.00
2023-04-20T05:09:54.590Z,560.00
2023-04-20T05:10:54.603Z,496.00
2023-04-20T05:11:54.592Z,488.00
2023-04-20T05:12:54.584Z,360.00
2023-04-20T05:13:54.574Z,372.00
2023-04-20T05:14:54.571Z,496.00
2023-04-20T05:15:54.610Z,456.00
2023-04-20T05:16:54.569Z,524.00
2023-04-20T05:17:54.625Z,664.00
2023-04-20T05:18:54.564Z,620.00
2023-04-20T05:19:54.564Z,568.00
2023-04-20T05:20:54.557Z,396.00
2023-04-20T05:21:54.556Z,416.00
2023-04-20T05:22:54.552Z,436.00
2023-04-20T05:23:54.558Z,572.00
2023-04-20T05:24:54.565Z,796.00
2023-04-20T05:25:54.540Z,768.00
2023-04-20T05:26:54.547Z,648.00
2023-04-20T05:27:54.539Z,564.00
2023-04-20T05:28:54.532Z,704.00
2023-04-20T05:29:54.552Z,848.00
2023-04-20T05:30:54.531Z,684.00
2023-04-20T05:31:54.594Z,668.00
2023-04-20T05:32:54.565Z,800.00
2023-04-20T05:33:54.523Z,976.00
2023-04-20T05:34:54.521Z,796.00
2023-04-20T05:35:54.522Z,708.00
2023-04-20T05:36:54.517Z,928.00
2023-04-20T05:37:54.514Z,1096.00
2023-04-20T05:38:54.513Z,1044.00
2023-04-20T05:39:54.512Z,1332.00
2023-04-20T05:40:54.529Z,1504.00
2023-04-20T05:41:54.508Z,1544.00
2023-04-20T05:42:54.506Z,1168.00
2023-04-20T05:43:54.502Z,864.00
2023-04-20T05:44:54.495Z,884.00
2023-04-20T05:45:54.551Z,880.00
2023-04-20T05:46:54.492Z,984.00
2023-04-20T05:47:54.535Z,1160.00
2023-04-20T05:48:54.493Z,1060.00
2023-04-20T05:49:54.490Z,832.00
2023-04-20T05:50:54.484Z,700.00
2023-04-20T05:51:54.492Z,748.00
2023-04-20T05:52:54.483Z,960.00
2023-04-20T05:53:54.477Z,1044.00
2023-04-20T05:54:54.487Z,1192.00
2023-04-20T05:55:54.493Z,1508.00
2023-04-20T05:56:54.497Z,1824.00
2023-04-20T05:57:54.470Z,1816.00
2023-04-20T05:58:54.481Z,1912.00
2023-04-20T05:59:54.469Z,1964.00
2023-04-20T06:00:54.459Z,2048.00
2023-04-20T06:01:54.518Z,2148.00
2023-04-20T06:02:54.637Z,2236.00
2023-04-20T06:03:54.845Z,2248.00
2023-04-20T06:04:54.628Z,2280.00
2023-04-20T06:05:54.461Z,2384.00
2023-04-20T06:06:54.458Z,2436.00
2023-04-20T06:07:54.454Z,2400.00
2023-04-20T06:08:54.440Z,2264.00
2023-04-20T06:09:54.454Z,2120.00
2023-04-20T06:10:54.443Z,1908.00
2023-04-20T06:11:54.439Z,1752.00
2023-04-20T06:12:54.455Z,1708.00
2023-04-20T06:13:54.437Z,1732.00
2023-04-20T06:14:54.432Z,1744.00
2023-04-20T06:15:54.530Z,1860.00
2023-04-20T06:16:54.428Z,1940.00
2023-04-20T06:17:54.518Z,1800.00
2023-04-20T06:18:54.425Z,1832.00
2023-04-20T06:19:54.427Z,2064.00
2023-04-20T06:20:54.423Z,2340.00
2023-04-20T06:21:54.418Z,2520.00
2023-04-20T06:22:54.410Z,2504.00
2023-04-20T06:23:54.419Z,2704.00
2023-04-20T06:24:54.407Z,2968.00
2023-04-20T06:25:54.414Z,3156.00
2023-04-20T06:26:54.407Z,3228.00
2023-04-20T06:27:54.428Z,3196.00
2023-04-20T06:28:54.440Z,3032.00
2023-04-20T06:29:54.411Z,2856.00
2023-04-20T06:30:54.418Z,2952.00
2023-04-20T06:31:54.451Z,2964.00
2023-04-20T06:32:54.414Z,2708.00
2023-04-20T06:33:54.391Z,2440.00
2023-04-20T06:34:54.381Z,2528.00
2023-04-20T06:35:54.383Z,2740.00
2023-04-20T06:36:54.381Z,2616.00
2023-04-20T06:37:54.376Z,2888.00
2023-04-20T06:38:54.385Z,2928.00
2023-04-20T06:39:54.381Z,2528.00
2023-04-20T06:40:54.373Z,2544.00
2023-04-20T06:41:54.378Z,2624.00
2023-04-20T06:42:54.375Z,2524.00
2023-04-20T06:43:54.386Z,2172.00
2023-04-20T06:44:54.396Z,1772.00
2023-04-20T06:45:54.365Z,1928.00
2023-04-20T06:46:54.397Z,2348.00
2023-04-20T06:47:54.521Z,2956.00
2023-04-20T06:48:54.369Z,2932.00
2023-04-20T06:49:54.356Z,2680.00
2023-04-20T06:50:54.356Z,2056.00
2023-04-20T06:51:54.371Z,1708.00
2023-04-20T06:52:54.349Z,1852.00
2023-04-20T06:53:54.348Z,1880.00
2023-04-20T06:54:54.343Z,2380.00
2023-04-20T06:55:54.345Z,4152.00
2023-04-20T06:56:54.333Z,4776.00
2023-04-20T06:57:54.337Z,4600.00
2023-04-20T06:58:54.341Z,4824.00
2023-04-20T06:59:54.328Z,5356.00
2023-04-20T07:00:54.467Z,4948.00
2023-04-20T07:01:54.403Z,3976.00
2023-04-20T07:02:54.392Z,4252.00
2023-04-20T07:03:54.651Z,5396.00
2023-04-20T07:04:54.515Z,4700.00
2023-04-20T07:05:54.319Z,4780.00
2023-04-20T07:06:54.670Z,4612.00
2023-04-20T07:07:54.328Z,4632.00
2023-04-20T07:08:54.316Z,4528.00
2023-04-20T07:09:54.308Z,4648.00
2023-04-20T07:10:54.350Z,6068.00
2023-04-20T07:11:54.314Z,6892.00
2023-04-20T07:12:54.310Z,6444.00
2023-04-20T07:13:54.328Z,5720.00
2023-04-20T07:14:54.304Z,6256.00
2023-04-20T07:15:54.336Z,6684.00
2023-04-20T07:16:54.474Z,6668.00
2023-04-20T07:17:54.326Z,6772.00
2023-04-20T07:18:54.291Z,7092.00
2023-04-20T07:19:54.291Z,5840.00
2023-04-20T07:20:54.303Z,4704.00
2023-04-20T07:21:54.283Z,4932.00
2023-04-20T07:22:54.299Z,4260.00
2023-04-20T07:23:54.281Z,3764.00
2023-04-20T07:24:54.298Z,3428.00
2023-04-20T07:25:54.286Z,3712.00
2023-04-20T07:26:54.279Z,4940.00
2023-04-20T07:27:54.330Z,5516.00
2023-04-20T07:28:54.278Z,6588.00
2023-04-20T07:29:54.275Z,5780.00
2023-04-20T07:30:54.281Z,4980.00
2023-04-20T07:31:54.319Z,5072.00
2023-04-20T07:32:54.421Z,4920.00
2023-04-20T07:33:54.262Z,5048.00
2023-04-20T07:34:54.275Z,5156.00
2023-04-20T07:35:54.269Z,5296.00
2023-04-20T07:36:54.258Z,5856.00
2023-04-20T07:37:54.271Z,4988.00
2023-04-20T07:38:54.266Z,4664.00
2023-04-20T07:39:54.275Z,5324.00
2023-04-20T07:40:54.265Z,6148.00
2023-04-20T07:41:54.265Z,5632.00
2023-04-20T07:42:54.274Z,6176.00
2023-04-20T07:43:54.251Z,7396.00
2023-04-20T07:44:54.257Z,6924.00
2023-04-20T07:45:54.302Z,6588.00
2023-04-20T07:46:54.254Z,6160.00
2023-04-20T07:47:54.397Z,5872.00
2023-04-20T07:48:54.341Z,5024.00
2023-04-20T07:49:54.255Z,3656.00
2023-04-20T07:50:54.250Z,3496.00
2023-04-20T07:51:56.908Z,3832.00
2023-04-20T07:52:54.247Z,3228.00
2023-04-20T07:53:54.242Z,3624.00
2023-04-20T07:54:54.241Z,3808.00
2023-04-20T07:55:54.250Z,3240.00
2023-04-20T07:56:54.256Z,3272.00
2023-04-20T07:57:54.242Z,3272.00
2023-04-20T07:58:54.312Z,4524.00
2023-04-20T07:59:54.244Z,6384.00
2023-04-20T08:00:54.234Z,7232.00
2023-04-20T08:01:56.319Z,7908.00
2023-04-20T08:02:54.350Z,6948.00
2023-04-20T08:03:54.554Z,5724.00
2023-04-20T08:04:54.569Z,6608.00
2023-04-20T08:05:54.320Z,12108.00
2023-04-20T08:06:54.232Z,19296.00
2023-04-20T08:07:54.265Z,12272.00
2023-04-20T08:08:54.216Z,9756.00
2023-04-20T08:09:54.226Z,15188.00
2023-04-20T08:10:54.217Z,12632.00
2023-04-20T08:11:54.228Z,9496.00
2023-04-20T08:12:54.222Z,8600.00
2023-04-20T08:13:55.743Z,7648.00
2023-04-20T08:14:54.219Z,6192.00
2023-04-20T08:15:54.282Z,6288.00
2023-04-20T08:16:54.237Z,6472.00
2023-04-20T08:17:54.397Z,5916.00
2023-04-20T08:18:54.242Z,4996.00
2023-04-20T08:19:54.197Z,4300.00
2023-04-20T08:20:54.305Z,5956.00
2023-04-20T08:21:54.198Z,8892.00
2023-04-20T08:22:54.209Z,8284.00
2023-04-20T08:23:54.233Z,8600.00
2023-04-20T08:24:54.217Z,8876.00
2023-04-20T08:25:54.221Z,7640.00
2023-04-20T08:26:54.203Z,7060.00
2023-04-20T08:27:54.262Z,6176.00
2023-04-20T08:28:54.218Z,5420.00
2023-04-20T08:29:54.191Z,4724.00
2023-04-20T08:30:54.232Z,4420.00
2023-04-20T08:31:54.453Z,4068.00
2023-04-20T08:32:54.256Z,4336.00
2023-04-20T08:33:54.465Z,4024.00
2023-04-20T08:34:54.185Z,2796.00
2023-04-20T08:35:54.201Z,2604.00
2023-04-20T08:36:54.379Z,2608.00
2023-04-20T08:37:54.186Z,2124.00
2023-04-20T08:38:54.193Z,2076.00
2023-04-20T08:39:54.201Z,1780.00
2023-04-20T08:40:54.202Z,1572.00
2023-04-20T08:41:54.170Z,1356.00
2023-04-20T08:42:54.175Z,1244.00
2023-04-20T08:43:54.179Z,1348.00
2023-04-20T08:44:54.175Z,1596.00
2023-04-20T08:45:54.175Z,1724.00
2023-04-20T08:46:54.269Z,1712.00
2023-04-20T08:47:54.251Z,1816.00
2023-04-20T08:48:54.170Z,1612.00
2023-04-20T08:49:54.165Z,1508.00
2023-04-20T08:50:54.172Z,1412.00
2023-04-20T08:51:54.162Z,1360.00
2023-04-20T08:52:54.294Z,1472.00
2023-04-20T08:53:54.157Z,1664.00
2023-04-20T08:54:57.388Z,1728.00
2023-04-20T08:55:54.160Z,1732.00
2023-04-20T08:56:54.159Z,1848.00
2023-04-20T08:57:54.157Z,1844.00
2023-04-20T08:58:54.157Z,1908.00
2023-04-20T08:59:54.157Z,1844.00
2023-04-20T09:00:54.159Z,1740.00
2023-04-20T09:01:54.245Z,1784.00
2023-04-20T09:02:54.340Z,1728.00
2023-04-20T09:03:54.382Z,1624.00
2023-04-20T09:04:54.348Z,1484.00
2023-04-20T09:05:54.167Z,1464.00
2023-04-20T09:06:54.171Z,1556.00
2023-04-20T09:07:54.141Z,1552.00
2023-04-20T09:08:54.172Z,1592.00
2023-04-20T09:09:54.133Z,1564.00
2023-04-20T09:10:54.141Z,1720.00
2023-04-20T09:11:54.137Z,1956.00
2023-04-20T09:12:54.155Z,2108.00
2023-04-20T09:13:54.164Z,2056.00
2023-04-20T09:14:54.147Z,2016.00
2023-04-20T09:15:54.180Z,2220.00
2023-04-20T09:16:54.287Z,2180.00
2023-04-20T09:17:54.178Z,2036.00
2023-04-20T09:18:54.138Z,2032.00
2023-04-20T09:19:54.129Z,2048.00
2023-04-20T09:20:54.135Z,2416.00
2023-04-20T09:21:54.127Z,3336.00
2023-04-20T09:22:54.123Z,4408.00
2023-04-20T09:23:54.117Z,4852.00
2023-04-20T09:24:54.144Z,4788.00
2023-04-20T09:25:54.120Z,5120.00
2023-04-20T09:26:54.136Z,6316.00
2023-04-20T09:27:54.107Z,7612.00
2023-04-20T09:28:54.137Z,7872.00
2023-04-20T09:29:54.105Z,7732.00
2023-04-20T09:30:54.111Z,6888.00
2023-04-20T09:31:54.123Z,5708.00
2023-04-20T09:32:54.199Z,5096.00
2023-04-20T09:33:54.106Z,5172.00
2023-04-20T09:34:54.115Z,5640.00
2023-04-20T09:35:54.095Z,7048.00
2023-04-20T09:36:54.118Z,8976.00
2023-04-20T09:37:54.093Z,10552.00
2023-04-20T09:38:54.095Z,11368.00
2023-04-20T09:39:54.095Z,11972.00
2023-04-20T09:40:54.216Z,12484.00
2023-04-20T09:41:54.095Z,12100.00
2023-04-20T09:42:54.091Z,11860.00
2023-04-20T09:43:54.093Z,8216.00
2023-04-20T09:44:54.094Z,7408.00
2023-04-20T09:45:54.126Z,7744.00
2023-04-20T09:46:54.101Z,6480.00
2023-04-20T09:47:54.125Z,5572.00
2023-04-20T09:48:54.088Z,6052.00
2023-04-20T09:49:54.088Z,6792.00
2023-04-20T09:50:54.097Z,7344.00
2023-04-20T09:51:54.080Z,7804.00
2023-04-20T09:52:54.079Z,7996.00
2023-04-20T09:53:54.081Z,8704.00
2023-04-20T09:54:54.076Z,10868.00
2023-04-20T09:55:54.070Z,10620.00
2023-04-20T09:56:54.209Z,8540.00
2023-04-20T09:57:54.092Z,7844.00
2023-04-20T09:58:54.074Z,8948.00
2023-04-20T09:59:54.075Z,8028.00
2023-04-20T10:00:54.110Z,11588.00
2023-04-20T10:01:54.080Z,12084.00
2023-04-20T10:02:54.191Z,17856.00
2023-04-20T10:03:54.481Z,42496.00
2023-04-20T10:04:54.069Z,19008.00
2023-04-20T10:05:54.065Z,29440.00
2023-04-20T10:06:54.073Z,31456.00
2023-04-20T10:07:54.071Z,15816.00
2023-04-20T10:08:54.064Z,11780.00
2023-04-20T10:09:54.079Z,8888.00
2023-04-20T10:10:54.068Z,19744.00
2023-04-20T10:11:56.075Z,11340.00
2023-04-20T10:12:54.224Z,14956.00
2023-04-20T10:13:54.068Z,12596.00
2023-04-20T10:14:54.069Z,8072.00
2023-04-20T10:15:54.078Z,12672.00
2023-04-20T10:16:54.091Z,20896.00
2023-04-20T10:17:54.171Z,20800.00
2023-04-20T10:18:54.152Z,19232.00
2023-04-20T10:19:54.057Z,24448.00
2023-04-20T10:20:54.057Z,13840.00
2023-04-20T10:21:54.057Z,18400.00
2023-04-20T10:22:54.058Z,30496.00
2023-04-20T10:23:54.063Z,84672.00
2023-04-20T10:24:54.062Z,39328.00
2023-04-20T10:25:54.060Z,78624.00
2023-04-20T10:26:54.062Z,57824.00
2023-04-20T10:27:54.051Z,41760.00
2023-04-20T10:28:54.078Z,22048.00
2023-04-20T10:29:54.060Z,33824.00
2023-04-20T10:30:54.244Z,26368.00
2023-04-20T10:31:54.072Z,35488.00
2023-04-20T10:32:54.134Z,16556.00
2023-04-20T10:33:54.057Z,32896.00
2023-04-20T10:34:54.060Z,56736.00
2023-04-20T10:35:54.058Z,45664.00
2023-04-20T10:36:54.057Z,70912.00
2023-04-20T10:37:54.056Z,84896.00
2023-04-20T10:38:54.067Z,96224.00
2023-04-20T10:39:54.061Z,88608.00
2023-04-20T10:40:54.067Z,86624.00
2023-04-20T10:41:54.060Z,83040.00
2023-04-20T10:42:54.081Z,76032.00
2023-04-20T10:43:54.066Z,85408.00
2023-04-20T10:44:54.107Z,83328.00
2023-04-20T10:45:54.080Z,63136.00
2023-04-20T10:46:54.126Z,55296.00
2023-04-20T10:47:54.112Z,81280.00
2023-04-20T10:48:54.074Z,79968.00
2023-04-20T10:49:54.079Z,83808.00
2023-04-20T10:50:54.096Z,65728.00
2023-04-20T10:51:54.692Z,22336.00
2023-04-20T10:52:54.088Z,16536.00
2023-04-20T10:53:54.097Z,18592.00
2023-04-20T10:54:54.099Z,14436.00
2023-04-20T10:55:54.100Z,11484.00
2023-04-20T10:56:54.130Z,13732.00
2023-04-20T10:57:54.105Z,14700.00
2023-04-20T10:58:54.120Z,17344.00
2023-04-20T10:59:54.108Z,25728.00
2023-04-20T11:00:54.325Z,31232.00
2023-04-20T11:01:54.212Z,13780.00
2023-04-20T11:02:54.283Z,13932.00
2023-04-20T11:03:54.167Z,17696.00
2023-04-20T11:04:54.184Z,72800.00
2023-04-20T11:05:54.132Z,18496.00
2023-04-20T11:06:54.132Z,20320.00
2023-04-20T11:07:54.157Z,29664.00
2023-04-20T11:08:54.138Z,35936.00
2023-04-20T11:09:54.138Z,20128.00
2023-04-20T11:10:54.150Z,37152.00
2023-04-20T11:11:54.145Z,14952.00
2023-04-20T11:12:54.151Z,10296.00
2023-04-20T11:13:54.150Z,17696.00
2023-04-20T11:14:54.151Z,24320.00
2023-04-20T11:15:54.206Z,13624.00
2023-04-20T11:16:54.398Z,20160.00
2023-04-20T11:17:54.190Z,73632.00
2023-04-20T11:18:54.177Z,35936.00
2023-04-20T11:19:54.170Z,47232.00
2023-04-20T11:20:54.176Z,29728.00
2023-04-20T11:21:54.181Z,19648.00
2023-04-20T11:22:54.873Z,35488.00
2023-04-20T11:23:54.183Z,12656.00
2023-04-20T11:24:54.194Z,9340.00
2023-04-20T11:25:54.197Z,15864.00
2023-04-20T11:26:54.220Z,12432.00
2023-04-20T11:27:54.185Z,13584.00
2023-04-20T11:28:55.907Z,14608.00
2023-04-20T11:29:54.196Z,11520.00
2023-04-20T11:30:54.195Z,25056.00
2023-04-20T11:31:54.352Z,11312.00
2023-04-20T11:32:54.401Z,8576.00
2023-04-20T11:33:54.204Z,9804.00
2023-04-20T11:35:05.459Z,8764.00
2023-04-20T11:35:54.203Z,11056.00
2023-04-20T11:36:54.206Z,10620.00
2023-04-20T11:37:54.221Z,9872.00
2023-04-20T11:38:54.207Z,9824.00
2023-04-20T11:39:54.217Z,12176.00
2023-04-20T11:40:54.219Z,10152.00
2023-04-20T11:41:54.250Z,7444.00
2023-04-20T11:42:54.214Z,8912.00
2023-04-20T11:43:54.222Z,10272.00
2023-04-20T11:44:54.225Z,16008.00
2023-04-20T11:45:54.257Z,12908.00
2023-04-20T11:46:54.230Z,19520.00
2023-04-20T11:47:54.291Z,23808.00
2023-04-20T11:48:54.304Z,27872.00
2023-04-20T11:49:54.244Z,30656.00
2023-04-20T11:50:54.239Z,25536.00
2023-04-20T11:51:54.242Z,30560.00
2023-04-20T11:52:54.250Z,11368.00
2023-04-20T11:53:54.245Z,21952.00
2023-04-20T11:54:54.239Z,20896.00
2023-04-20T11:55:54.256Z,25952.00
2023-04-20T11:56:54.242Z,9700.00
2023-04-20T11:57:54.244Z,8536.00
2023-04-20T11:58:54.247Z,11280.00
2023-04-20T11:59:54.257Z,8756.00
2023-04-20T12:00:54.251Z,12460.00
2023-04-20T12:01:54.283Z,10452.00
2023-04-20T12:02:54.410Z,12112.00
2023-04-20T12:03:54.361Z,13596.00
2023-04-20T12:04:54.369Z,10644.00
2023-04-20T12:05:54.301Z,9744.00
2023-04-20T12:06:54.259Z,16376.00
2023-04-20T12:07:54.283Z,28608.00
2023-04-20T12:08:54.290Z,25568.00
2023-04-20T12:09:54.284Z,14560.00
2023-04-20T12:10:55.962Z,10464.00
2023-04-20T12:11:54.291Z,25632.00
2023-04-20T12:12:54.289Z,8900.00
2023-04-20T12:13:54.317Z,12160.00
2023-04-20T12:14:54.303Z,7172.00
2023-04-20T12:15:54.357Z,7812.00
2023-04-20T12:16:56.116Z,10596.00
2023-04-20T12:17:54.449Z,28448.00
2023-04-20T12:18:54.297Z,14612.00
2023-04-20T12:19:54.306Z,20384.00
2023-04-20T12:20:54.429Z,29664.00
2023-04-20T12:21:54.316Z,7716.00
2023-04-20T12:22:55.593Z,6164.00
2023-04-20T12:23:54.307Z,8180.00
2023-04-20T12:24:54.321Z,11996.00
2023-04-20T12:25:54.308Z,13300.00
2023-04-20T12:26:54.314Z,13092.00